Time,TemperatureF,DewpointF,PressureIn,WindDirection,WindDirectionDegrees,WindSpeedMPH,WindSpeedGustMPH,Humidity,HourlyPrecipIn,Conditions,Clouds,dailyrainin,SoftwareType,DateUTC
2013-02-11 00:01:00,14.0,5.0,30.06,NNW,340,5.0,-999.0,66,-99.99,,,-99.99,,2013-02-11 07:01:00,
2013-02-11 00:11:00,9.0,0.0,30.06,North,0,0.0,-999.0,66,-99.99,,,-99.99,,2013-02-11 07:11:00,
2013-02-11 00:31:00,10.0,3.0,30.06,NNW,330,5.0,-999.0,72,-99.99,,,-99.99,,2013-02-11 07:31:00,
2013-02-11 00:41:00,10.0,3.0,30.06,NNW,330,5.0,-999.0,72,-99.99,,,-99.99,,2013-02-11 07:41:00,
2013-02-11 00:51:00,10.0,3.0,30.05,NNW,330,5.0,-999.0,72,-99.99,,,-99.99,,2013-02-11 07:51:00,
2013-02-11 01:01:00,10.0,3.0,30.05,NNW,330,5.0,-999.0,72,-99.99,,,-99.99,,2013-02-11 08:01:00,
2013-02-11 01:11:00,9.0,3.0,30.05,NNW,330,5.0,-999.0,78,-99.99,,,-99.99,,2013-02-11 08:11:00,
2013-02-11 01:21:00,9.0,3.0,30.05,NNW,330,5.0,-999.0,78,-99.99,,,-99.99,,2013-02-11 08:21:00,
2013-02-11 01:31:00,9.0,3.0,30.04,NNW,330,6.0,-999.0,78,-99.99,,,-99.99,,2013-02-11 08:31:00,
2013-02-11 01:42:00,9.0,3.0,30.04,NNW,330,6.0,-999.0,78,-99.99,,,-99.99,,2013-02-11 08:42:00,
2013-02-11 01:51:00,10.0,3.0,30.03,West,270,7.0,-999.0,72,-99.99,,,-99.99,,2013-02-11 08:51:00,
2013-02-11 02:01:00,10.0,3.0,30.03,West,270,7.0,-999.0,72,-99.99,,,-99.99,,2013-02-11 09:01:00,
2013-02-11 02:11:00,10.0,5.0,30.03,SSW,200,9.0,-999.0,78,-99.99,,,-99.99,,2013-02-11 09:11:00,
2013-02-11 02:21:00,10.0,5.0,30.03,SSW,200,9.0,-999.0,78,-99.99,,,-99.99,,2013-02-11 09:21:00,
2013-02-11 02:31:00,10.0,1.0,30.03,SSW,200,6.0,-999.0,66,-99.99,,,-99.99,,2013-02-11 09:31:00,
2013-02-11 02:41:00,10.0,1.0,30.03,SSW,200,6.0,-999.0,66,-99.99,,,-99.99,,2013-02-11 09:41:00,
2013-02-11 02:51:00,9.0,1.0,30.03,SSW,200,5.0,-999.0,71,-99.99,,,-99.99,,2013-02-11 09:51:00,
2013-02-11 03:01:00,9.0,1.0,30.03,SSW,200,5.0,-999.0,71,-99.99,,,-99.99,,2013-02-11 10:01:00,
2013-02-11 03:11:00,9.0,1.0,30.03,SSW,200,5.0,-999.0,71,-99.99,,,-99.99,,2013-02-11 10:11:00,
2013-02-11 03:21:00,9.0,1.0,30.03,SSW,200,5.0,-999.0,71,-99.99,,,-99.99,,2013-02-11 10:21:00,
2013-02-11 03:31:00,9.0,1.0,30.01,North,0,0.0,-999.0,71,-99.99,,,-99.99,,2013-02-11 10:31:00,
2013-02-11 03:42:00,9.0,1.0,30.01,North,0,0.0,-999.0,71,-99.99,,,-99.99,,2013-02-11 10:42:00,
2013-02-11 03:52:00,7.0,0.0,30.00,SSW,210,5.0,-999.0,71,-99.99,,,-99.99,,2013-02-11 10:52:00,
2013-02-11 04:01:00,7.0,0.0,30.00,SSW,210,5.0,-999.0,71,-99.99,,,-99.99,,2013-02-11 11:01:00,
2013-02-11 04:11:00,7.0,0.0,30.00,SSW,210,6.0,-999.0,71,-99.99,,,-99.99,,2013-02-11 11:11:00,
2013-02-11 04:22:00,7.0,0.0,30.00,SSW,210,6.0,-999.0,71,-99.99,,,-99.99,,2013-02-11 11:22:00,
2013-02-11 04:32:00,7.0,0.0,29.99,SSW,210,7.0,-999.0,71,-99.99,,,-99.99,,2013-02-11 11:32:00,
2013-02-11 04:42:00,7.0,0.0,29.99,SSW,210,7.0,-999.0,71,-99.99,,,-99.99,,2013-02-11 11:42:00,
2013-02-11 04:52:00,7.0,-2.0,29.99,SSW,200,8.0,-999.0,65,-99.99,,,-99.99,,2013-02-11 11:52:00,
2013-02-11 05:02:00,7.0,-2.0,29.99,SSW,200,8.0,-999.0,65,-99.99,,,-99.99,,2013-02-11 12:02:00,
2013-02-11 05:12:00,7.0,-2.0,29.99,SSW,200,8.0,-999.0,65,-99.99,,,-99.99,,2013-02-11 12:12:00,
2013-02-11 05:22:00,7.0,-2.0,29.99,SSW,200,8.0,-999.0,65,-99.99,,,-99.99,,2013-02-11 12:22:00,
2013-02-11 05:31:00,7.0,0.0,29.98,SSW,200,6.0,-999.0,71,-99.99,,,-99.99,,2013-02-11 12:31:00,
2013-02-11 05:42:00,7.0,0.0,29.98,SSW,200,6.0,-999.0,71,-99.99,,,-99.99,,2013-02-11 12:42:00,
2013-02-11 05:52:00,7.0,-2.0,29.98,SSW,200,6.0,-999.0,65,-99.99,,,-99.99,,2013-02-11 12:52:00,
2013-02-11 06:01:00,7.0,-2.0,29.98,SSW,200,6.0,-999.0,65,-99.99,,,-99.99,,2013-02-11 13:01:00,
2013-02-11 06:11:00,10.0,3.0,29.97,SSW,200,10.0,17.0,72,-99.99,,,-99.99,,2013-02-11 13:11:00,
2013-02-11 06:21:00,10.0,3.0,29.97,SSW,200,10.0,17.0,72,-99.99,,,-99.99,,2013-02-11 13:21:00,
2013-02-11 06:32:00,12.0,3.0,29.97,SSW,200,15.0,21.0,66,-99.99,,,-99.99,,2013-02-11 13:32:00,
2013-02-11 06:41:00,12.0,3.0,29.97,SSW,200,15.0,21.0,66,-99.99,,,-99.99,,2013-02-11 13:41:00,
2013-02-11 06:51:00,12.0,3.0,29.97,SSW,200,15.0,22.0,66,-99.99,,,-99.99,,2013-02-11 13:51:00,
2013-02-11 07:01:00,12.0,3.0,29.97,SSW,200,15.0,22.0,66,-99.99,,,-99.99,,2013-02-11 14:01:00,
2013-02-11 07:11:00,12.0,3.0,29.97,SSW,200,15.0,22.0,66,-99.99,,,-99.99,,2013-02-11 14:11:00,
2013-02-11 07:21:00,12.0,3.0,29.97,SSW,200,15.0,22.0,66,-99.99,,,-99.99,,2013-02-11 14:21:00,
2013-02-11 07:32:00,12.0,5.0,29.97,South,190,14.0,20.0,72,-99.99,,,-99.99,,2013-02-11 14:32:00,
2013-02-11 07:42:00,12.0,5.0,29.97,South,190,14.0,20.0,72,-99.99,,,-99.99,,2013-02-11 14:42:00,
2013-02-11 07:52:00,12.0,3.0,29.97,SSW,210,13.0,17.0,66,-99.99,,,-99.99,,2013-02-11 14:52:00,
2013-02-11 08:01:00,12.0,3.0,29.97,SSW,210,13.0,17.0,66,-99.99,,,-99.99,,2013-02-11 15:01:00,
2013-02-11 08:11:00,16.0,5.0,29.97,South,180,17.0,23.0,61,-99.99,,,-99.99,,2013-02-11 15:11:00,
2013-02-11 08:22:00,16.0,5.0,29.97,South,180,17.0,23.0,61,-99.99,,,-99.99,,2013-02-11 15:22:00,
2013-02-11 08:31:00,16.0,7.0,29.97,South,190,14.0,21.0,67,-99.99,,,-99.99,,2013-02-11 15:31:00,
2013-02-11 08:42:00,16.0,7.0,29.97,South,190,14.0,21.0,67,-99.99,,,-99.99,,2013-02-11 15:42:00,
2013-02-11 08:51:00,18.0,7.0,29.97,South,170,18.0,24.0,62,-99.99,,,-99.99,,2013-02-11 15:51:00,
2013-02-11 09:01:00,18.0,7.0,29.97,South,170,18.0,24.0,62,-99.99,,,-99.99,,2013-02-11 16:01:00,
2013-02-11 09:11:00,19.0,9.0,29.97,South,190,14.0,24.0,62,-99.99,,,-99.99,,2013-02-11 16:11:00,
2013-02-11 09:21:00,19.0,9.0,29.97,South,190,14.0,24.0,62,-99.99,,,-99.99,,2013-02-11 16:21:00,
2013-02-11 09:31:00,19.0,9.0,29.97,SSW,200,16.0,28.0,62,-99.99,,,-99.99,,2013-02-11 16:31:00,
2013-02-11 09:42:00,19.0,9.0,29.97,SSW,200,16.0,28.0,62,-99.99,,,-99.99,,2013-02-11 16:42:00,
2013-02-11 09:51:00,21.0,9.0,29.97,South,180,18.0,27.0,57,-99.99,,,-99.99,,2013-02-11 16:51:00,
2013-02-11 10:01:00,21.0,9.0,29.97,South,180,18.0,27.0,57,-99.99,,,-99.99,,2013-02-11 17:01:00,
2013-02-11 10:11:00,21.0,9.0,29.97,South,180,17.0,25.0,57,-99.99,,,-99.99,,2013-02-11 17:11:00,
2013-02-11 10:21:00,21.0,9.0,29.97,South,180,17.0,25.0,57,-99.99,,,-99.99,,2013-02-11 17:21:00,
2013-02-11 10:31:00,21.0,9.0,29.96,South,190,15.0,24.0,57,-99.99,,,-99.99,,2013-02-11 17:31:00,
2013-02-11 10:41:00,21.0,9.0,29.96,South,190,15.0,24.0,57,-99.99,,,-99.99,,2013-02-11 17:41:00,
2013-02-11 10:52:00,23.0,9.0,29.96,SSW,210,20.0,27.0,53,-99.99,,,-99.99,,2013-02-11 17:52:00,
2013-02-11 11:01:00,23.0,9.0,29.96,SSW,210,20.0,27.0,53,-99.99,,,-99.99,,2013-02-11 18:01:00,
2013-02-11 11:11:00,23.0,9.0,29.96,SSW,200,21.0,30.0,53,-99.99,,,-99.99,,2013-02-11 18:11:00,
2013-02-11 11:21:00,23.0,9.0,29.96,SSW,200,21.0,30.0,53,-99.99,,,-99.99,,2013-02-11 18:21:00,
2013-02-11 11:31:00,25.0,10.0,29.96,South,190,23.0,31.0,53,-99.99,,,-99.99,,2013-02-11 18:31:00,
2013-02-11 11:41:00,25.0,10.0,29.96,South,190,23.0,31.0,53,-99.99,,,-99.99,,2013-02-11 18:41:00,
2013-02-11 11:52:00,25.0,10.0,29.95,South,180,17.0,27.0,53,-99.99,,,-99.99,,2013-02-11 18:52:00,
2013-02-11 12:01:00,25.0,10.0,29.95,South,180,17.0,27.0,53,-99.99,,,-99.99,,2013-02-11 19:01:00,
2013-02-11 12:11:00,25.0,10.0,29.95,SSW,200,18.0,31.0,53,-99.99,,,-99.99,,2013-02-11 19:11:00,
2013-02-11 12:21:00,25.0,10.0,29.95,SSW,200,18.0,31.0,53,-99.99,,,-99.99,,2013-02-11 19:21:00,
2013-02-11 12:31:00,25.0,10.0,29.95,South,190,23.0,30.0,53,-99.99,,,-99.99,,2013-02-11 19:31:00,
2013-02-11 12:41:00,25.0,10.0,29.95,South,190,23.0,30.0,53,-99.99,,,-99.99,,2013-02-11 19:41:00,
2013-02-11 12:51:00,27.0,12.0,29.94,South,190,25.0,31.0,54,-99.99,,,-99.99,,2013-02-11 19:51:00,
2013-02-11 13:01:00,27.0,12.0,29.94,South,190,25.0,31.0,54,-99.99,,,-99.99,,2013-02-11 20:01:00,
2013-02-11 13:11:00,27.0,12.0,29.94,South,190,25.0,31.0,54,-99.99,,,-99.99,,2013-02-11 20:11:00,
2013-02-11 13:21:00,27.0,12.0,29.94,South,190,25.0,31.0,54,-99.99,,,-99.99,,2013-02-11 20:21:00,
2013-02-11 13:31:00,27.0,12.0,29.93,South,190,24.0,36.0,54,-99.99,,,-99.99,,2013-02-11 20:31:00,
2013-02-11 13:42:00,27.0,12.0,29.93,South,190,24.0,36.0,54,-99.99,,,-99.99,,2013-02-11 20:42:00,
2013-02-11 13:52:00,27.0,12.0,29.93,South,190,25.0,33.0,54,-99.99,,,-99.99,,2013-02-11 20:52:00,
2013-02-11 14:02:00,27.0,12.0,29.93,South,190,25.0,33.0,54,-99.99,,,-99.99,,2013-02-11 21:02:00,
2013-02-11 14:11:00,27.0,12.0,29.93,South,190,22.0,30.0,54,-99.99,,,-99.99,,2013-02-11 21:11:00,
2013-02-11 14:21:00,27.0,12.0,29.93,South,190,22.0,30.0,54,-99.99,,,-99.99,,2013-02-11 21:21:00,
2013-02-11 14:31:00,27.0,12.0,29.92,South,190,22.0,29.0,54,-99.99,,,-99.99,,2013-02-11 21:31:00,
2013-02-11 14:41:00,27.0,12.0,29.92,South,190,22.0,29.0,54,-99.99,,,-99.99,,2013-02-11 21:41:00,
2013-02-11 14:51:00,28.0,12.0,29.92,SSW,200,20.0,29.0,50,-99.99,,,-99.99,,2013-02-11 21:51:00,
2013-02-11 15:01:00,28.0,12.0,29.92,SSW,200,20.0,29.0,50,-99.99,,,-99.99,,2013-02-11 22:01:00,
2013-02-11 15:11:00,28.0,12.0,29.92,SSW,200,20.0,29.0,50,-99.99,,,-99.99,,2013-02-11 22:11:00,
2013-02-11 15:21:00,28.0,12.0,29.92,SSW,200,20.0,29.0,50,-99.99,,,-99.99,,2013-02-11 22:21:00,
2013-02-11 15:31:00,28.0,12.0,29.92,SSW,200,22.0,-999.0,50,-99.99,,,-99.99,,2013-02-11 22:31:00,
2013-02-11 15:42:00,28.0,12.0,29.92,SSW,200,22.0,-999.0,50,-99.99,,,-99.99,,2013-02-11 22:42:00,
2013-02-11 15:52:00,28.0,12.0,29.92,SSW,200,22.0,29.0,50,-99.99,,,-99.99,,2013-02-11 22:52:00,
2013-02-11 16:01:00,28.0,12.0,29.92,SSW,200,22.0,29.0,50,-99.99,,,-99.99,,2013-02-11 23:01:00,
2013-02-11 16:11:00,28.0,12.0,29.92,SSW,200,22.0,29.0,50,-99.99,,,-99.99,,2013-02-11 23:11:00,
2013-02-11 16:21:00,28.0,12.0,29.92,SSW,200,22.0,29.0,50,-99.99,,,-99.99,,2013-02-11 23:21:00,
2013-02-11 16:31:00,28.0,12.0,29.92,SSW,210,20.0,30.0,50,-99.99,,,-99.99,,2013-02-11 23:31:00,
2013-02-11 16:42:00,28.0,12.0,29.92,SSW,210,20.0,30.0,50,-99.99,,,-99.99,,2013-02-11 23:42:00,
2013-02-11 16:52:00,27.0,10.0,29.92,SSW,200,17.0,23.0,49,-99.99,,,-99.99,,2013-02-11 23:52:00,
2013-02-11 17:01:00,27.0,10.0,29.92,SSW,200,17.0,23.0,49,-99.99,,,-99.99,,2013-02-12 00:01:00,
2013-02-11 17:11:00,27.0,10.0,29.92,SSW,200,18.0,28.0,49,-99.99,,,-99.99,,2013-02-12 00:11:00,
2013-02-11 17:21:00,27.0,10.0,29.92,SSW,200,18.0,28.0,49,-99.99,,,-99.99,,2013-02-12 00:21:00,
2013-02-11 17:31:00,27.0,10.0,29.92,SSW,200,17.0,27.0,49,-99.99,,,-99.99,,2013-02-12 00:31:00,
2013-02-11 17:42:00,27.0,10.0,29.92,SSW,200,17.0,27.0,49,-99.99,,,-99.99,,2013-02-12 00:42:00,
2013-02-11 17:51:00,25.0,10.0,29.91,SSW,200,17.0,24.0,53,-99.99,,,-99.99,,2013-02-12 00:51:00,
2013-02-11 18:01:00,25.0,10.0,29.91,SSW,200,17.0,24.0,53,-99.99,,,-99.99,,2013-02-12 01:01:00,
2013-02-11 18:11:00,25.0,10.0,29.91,SSW,200,17.0,24.0,53,-99.99,,,-99.99,,2013-02-12 01:11:00,
2013-02-11 18:21:00,25.0,10.0,29.91,SSW,200,17.0,24.0,53,-99.99,,,-99.99,,2013-02-12 01:21:00,
2013-02-11 18:31:00,25.0,9.0,29.92,SSW,200,15.0,27.0,49,-99.99,,,-99.99,,2013-02-12 01:31:00,
2013-02-11 18:42:00,25.0,9.0,29.92,SSW,200,15.0,27.0,49,-99.99,,,-99.99,,2013-02-12 01:42:00,
2013-02-11 18:52:00,25.0,7.0,29.92,SSW,210,20.0,-999.0,45,-99.99,,,-99.99,,2013-02-12 01:52:00,
2013-02-11 19:01:00,25.0,7.0,29.92,SSW,210,20.0,-999.0,45,-99.99,,,-99.99,,2013-02-12 02:01:00,
2013-02-11 19:11:00,25.0,9.0,29.92,SSW,200,15.0,22.0,49,-99.99,,,-99.99,,2013-02-12 02:11:00,
2013-02-11 19:21:00,25.0,9.0,29.92,SSW,200,15.0,22.0,49,-99.99,,,-99.99,,2013-02-12 02:21:00,
2013-02-11 19:31:00,25.0,9.0,29.93,SW,220,14.0,22.0,49,-99.99,,,-99.99,,2013-02-12 02:31:00,
2013-02-11 19:41:00,25.0,9.0,29.93,SW,220,14.0,22.0,49,-99.99,,,-99.99,,2013-02-12 02:41:00,
2013-02-11 19:52:00,23.0,9.0,29.93,SSW,210,15.0,21.0,53,-99.99,,,-99.99,,2013-02-12 02:52:00,
2013-02-11 20:02:00,23.0,9.0,29.93,SSW,210,15.0,21.0,53,-99.99,,,-99.99,,2013-02-12 03:02:00,
2013-02-11 20:11:00,23.0,9.0,29.93,SSW,210,15.0,21.0,53,-99.99,,,-99.99,,2013-02-12 03:11:00,
2013-02-11 20:21:00,23.0,9.0,29.93,SSW,210,15.0,21.0,53,-99.99,,,-99.99,,2013-02-12 03:21:00,
2013-02-11 20:31:00,23.0,7.0,29.94,SSW,210,10.0,20.0,49,-99.99,,,-99.99,,2013-02-12 03:31:00,
2013-02-11 20:42:00,23.0,7.0,29.94,SSW,210,10.0,20.0,49,-99.99,,,-99.99,,2013-02-12 03:42:00,
2013-02-11 20:52:00,23.0,7.0,29.94,SW,220,14.0,20.0,49,-99.99,,,-99.99,,2013-02-12 03:52:00,
2013-02-11 21:01:00,23.0,7.0,29.94,SW,220,14.0,20.0,49,-99.99,,,-99.99,,2013-02-12 04:01:00,
2013-02-11 21:11:00,21.0,7.0,29.94,SSW,210,14.0,18.0,53,-99.99,,,-99.99,,2013-02-12 04:11:00,
2013-02-11 21:21:00,21.0,7.0,29.94,SSW,210,14.0,18.0,53,-99.99,,,-99.99,,2013-02-12 04:21:00,
2013-02-11 21:31:00,21.0,7.0,29.95,SW,220,12.0,17.0,53,-99.99,,,-99.99,,2013-02-12 04:31:00,
2013-02-11 21:41:00,21.0,7.0,29.95,SW,220,12.0,17.0,53,-99.99,,,-99.99,,2013-02-12 04:41:00,
2013-02-11 21:51:00,21.0,9.0,29.95,SSW,210,10.0,16.0,57,-99.99,,,-99.99,,2013-02-12 04:51:00,
2013-02-11 22:01:00,21.0,9.0,29.95,SSW,210,10.0,16.0,57,-99.99,,,-99.99,,2013-02-12 05:01:00,
2013-02-11 22:11:00,21.0,9.0,29.95,SSW,210,10.0,16.0,57,-99.99,,,-99.99,,2013-02-12 05:11:00,
2013-02-11 22:21:00,21.0,9.0,29.95,SSW,210,10.0,16.0,57,-99.99,,,-99.99,,2013-02-12 05:21:00,
2013-02-11 22:31:00,21.0,7.0,29.95,SSW,200,6.0,-999.0,53,-99.99,,,-99.99,,2013-02-12 05:31:00,
2013-02-11 22:42:00,21.0,7.0,29.95,SSW,200,6.0,-999.0,53,-99.99,,,-99.99,,2013-02-12 05:42:00,
2013-02-11 22:52:00,21.0,7.0,29.95,SSW,200,6.0,-999.0,53,-99.99,,,-99.99,,2013-02-12 05:52:00,
2013-02-11 23:01:00,21.0,7.0,29.95,SSW,200,6.0,-999.0,53,-99.99,,,-99.99,,2013-02-12 06:01:00,
2013-02-11 23:12:00,19.0,7.0,29.95,SSW,200,6.0,-999.0,57,-99.99,,,-99.99,,2013-02-12 06:12:00,
2013-02-11 23:21:00,19.0,7.0,29.95,SSW,200,6.0,-999.0,57,-99.99,,,-99.99,,2013-02-12 06:21:00,
2013-02-11 23:31:00,19.0,7.0,29.96,SSW,200,5.0,-999.0,57,-99.99,,,-99.99,,2013-02-12 06:31:00,
2013-02-11 23:42:00,19.0,7.0,29.96,SSW,200,5.0,-999.0,57,-99.99,,,-99.99,,2013-02-12 06:42:00,
2013-02-11 23:51:00,19.0,5.0,29.96,North,0,0.0,-999.0,52,-99.99,,,-99.99,,2013-02-12 06:51:00,